Terminal Aerodrome Forecast
Issued by NWS

Home | Current Version | Previous Version | Text Only | Print | Product List | Glossary On
Versions: 1 2 3 4 5 6 7 8 9 10 11 12
000
FTUS46 KPDT 302300
TAFALW
TAF
KALW 302340Z 3100/3124 26007KT P6SM FEW070 FEW150 SCT250
     FM310300 13006KT P6SM FEW150 SCT200
     FM310900 16007KT P6SM FEW130 SCT250
     FM311300 VRB05KT P6SM SCT150 BKN250
     FM312000 25007KT P6SM SCT150 BKN200=

USA.gov is the U.S. government's official web portal to all federal, state and local government web resources and services.